createdAt,value
2022-10-11T00:01:04.638Z,85.90
2022-10-11T00:03:37.284Z,85.89
2022-10-11T00:06:06.616Z,86.00
2022-10-11T00:08:36.131Z,86.28
2022-10-11T00:11:08.814Z,86.35
2022-10-11T00:13:37.260Z,86.46
2022-10-11T00:16:11.414Z,86.47
2022-10-11T00:18:40.008Z,86.48
2022-10-11T00:21:13.090Z,86.46
2022-10-11T00:23:43.052Z,86.42
2022-10-11T00:26:12.061Z,86.53
2022-10-11T00:28:41.467Z,86.64
2022-10-11T00:31:14.770Z,86.81
2022-10-11T00:33:43.038Z,86.84
2022-10-11T00:36:14.368Z,86.89
2022-10-11T00:38:45.192Z,87.10
2022-10-11T00:41:14.473Z,87.12
2022-10-11T00:43:43.842Z,87.19
2022-10-11T00:46:32.498Z,87.25
2022-10-11T00:49:07.231Z,87.32
2022-10-11T00:52:05.706Z,87.38
2022-10-11T00:54:39.339Z,87.40
2022-10-11T00:57:14.027Z,87.52
2022-10-11T00:59:51.034Z,87.51
2022-10-11T01:02:20.689Z,87.59
2022-10-11T01:05:05.608Z,87.82
2022-10-11T01:07:39.906Z,87.68
2022-10-11T01:10:08.532Z,87.83
2022-10-11T01:12:50.382Z,88.11
2022-10-11T01:15:34.629Z,88.22
2022-10-11T01:18:37.840Z,88.36
2022-10-11T01:21:22.367Z,88.37
2022-10-11T01:24:35.264Z,88.58
2022-10-11T01:27:30.388Z,88.61
2022-10-11T01:30:24.319Z,88.61
2022-10-11T01:33:31.681Z,88.65
2022-10-11T01:36:14.129Z,88.72
2022-10-11T01:38:50.228Z,88.76
2022-10-11T01:41:30.998Z,88.61
2022-10-11T01:44:02.380Z,88.52
2022-10-11T01:46:32.027Z,88.49
2022-10-11T01:49:03.199Z,88.64
2022-10-11T01:51:46.325Z,88.75
2022-10-11T01:55:08.761Z,88.81
2022-10-11T01:58:10.744Z,88.89
2022-10-11T02:01:02.864Z,88.92
2022-10-11T02:03:52.468Z,88.86
2022-10-11T02:06:45.702Z,88.74
2022-10-11T02:09:20.255Z,88.73
2022-10-11T02:11:48.657Z,88.90
2022-10-11T02:14:26.476Z,88.85
2022-10-11T02:17:04.087Z,88.78
2022-10-11T02:19:39.594Z,88.72
2022-10-11T02:22:15.195Z,88.54
2022-10-11T02:24:48.361Z,88.49
2022-10-11T02:27:20.382Z,88.52
2022-10-11T02:29:51.247Z,89.02
2022-10-11T02:32:21.944Z,89.49
2022-10-11T02:35:00.730Z,89.85
2022-10-11T02:37:56.648Z,90.42
2022-10-11T02:40:33.427Z,90.77
2022-10-11T02:43:09.275Z,91.12
2022-10-11T02:46:01.704Z,91.60
2022-10-11T02:48:32.445Z,91.81
2022-10-11T02:51:00.677Z,91.87
2022-10-11T02:53:29.315Z,92.14
2022-10-11T02:55:57.535Z,92.35
2022-10-11T02:58:25.797Z,92.69
2022-10-11T03:00:54.040Z,92.86
2022-10-11T03:03:22.317Z,93.10
2022-10-11T03:05:50.574Z,93.15
2022-10-11T03:08:18.829Z,93.35
2022-10-11T03:10:47.640Z,93.49
2022-10-11T03:13:18.370Z,93.45
2022-10-11T03:16:02.362Z,93.57
2022-10-11T03:18:31.621Z,94.03
2022-10-11T03:21:00.076Z,94.62
2022-10-11T03:23:28.345Z,94.97
2022-10-11T03:25:56.735Z,95.30
2022-10-11T03:28:25.106Z,95.31
2022-10-11T03:30:53.370Z,95.41
2022-10-11T03:33:21.691Z,95.51
2022-10-11T03:35:50.410Z,95.67
2022-10-11T03:38:22.020Z,95.68
2022-10-11T03:40:50.545Z,95.66
2022-10-11T03:43:18.942Z,95.83
2022-10-11T03:45:47.217Z,95.78
2022-10-11T03:48:15.458Z,95.77
2022-10-11T03:50:43.710Z,95.77
2022-10-11T03:53:11.945Z,95.87
2022-10-11T03:55:41.456Z,95.89
2022-10-11T03:58:10.096Z,95.93
2022-10-11T04:00:39.693Z,96.07
2022-10-11T04:03:07.935Z,96.10
2022-10-11T04:05:36.566Z,96.26
2022-10-11T04:08:08.501Z,96.32
2022-10-11T04:10:40.388Z,96.42
2022-10-11T04:13:11.680Z,96.53
2022-10-11T04:15:41.384Z,96.58
2022-10-11T04:18:10.024Z,96.76
2022-10-11T04:20:38.319Z,96.68
2022-10-11T04:23:06.579Z,96.68
2022-10-11T04:25:34.775Z,96.80
2022-10-11T04:28:03.266Z,97.00
2022-10-11T04:30:31.440Z,97.10
2022-10-11T04:32:59.720Z,97.26
2022-10-11T04:35:27.990Z,97.27
2022-10-11T04:37:56.591Z,97.30
2022-10-11T04:40:24.815Z,97.35
2022-10-11T04:42:53.810Z,97.33
2022-10-11T04:45:22.116Z,97.16
2022-10-11T04:47:50.337Z,97.19
2022-10-11T04:50:19.294Z,97.25
2022-10-11T04:52:47.539Z,97.39
2022-10-11T04:55:15.834Z,97.40
2022-10-11T04:57:44.152Z,97.52
2022-10-11T05:00:13.096Z,97.73
2022-10-11T05:02:41.305Z,97.81
2022-10-11T05:05:10.048Z,97.98
2022-10-11T05:07:38.566Z,97.99
2022-10-11T05:10:07.720Z,98.06
2022-10-11T05:12:36.031Z,98.26
2022-10-11T05:15:04.993Z,98.34
2022-10-11T05:17:33.361Z,98.34
2022-10-11T05:20:01.658Z,98.43
2022-10-11T05:22:29.891Z,98.46
2022-10-11T05:24:58.141Z,98.62
2022-10-11T05:27:26.323Z,98.65
2022-10-11T05:29:54.756Z,98.76
2022-10-11T05:32:27.604Z,98.72
2022-10-11T05:34:56.191Z,98.84
2022-10-11T05:37:24.566Z,98.98
2022-10-11T05:39:53.220Z,99.07
2022-10-11T05:42:21.443Z,99.05
2022-10-11T05:44:49.635Z,99.16
2022-10-11T05:47:17.871Z,99.17
2022-10-11T05:49:46.079Z,99.31
2022-10-11T05:52:19.738Z,99.47
2022-10-11T05:54:49.303Z,99.41
2022-10-11T05:57:17.583Z,99.46
2022-10-11T05:59:45.772Z,99.57
2022-10-11T06:02:14.098Z,99.74
2022-10-11T06:05:07.692Z,99.87
2022-10-11T06:10:55.386Z,99.95
2022-10-11T06:13:23.836Z,100.00
2022-10-11T06:15:52.235Z,100.00
2022-10-11T06:18:20.439Z,100.00
2022-10-11T06:20:48.649Z,100.00
2022-10-11T06:23:16.846Z,100.00
2022-10-11T06:25:56.105Z,100.00
2022-10-11T06:28:25.057Z,100.00
2022-10-11T06:30:53.624Z,100.00
2022-10-11T06:33:22.799Z,100.00
2022-10-11T06:35:58.228Z,100.00
2022-10-11T06:38:26.855Z,100.00
2022-10-11T06:40:55.207Z,100.00
2022-10-11T06:43:23.869Z,100.00
2022-10-11T06:45:52.158Z,100.00
2022-10-11T06:48:20.353Z,100.00
2022-10-11T06:50:59.602Z,100.00
2022-10-11T06:53:28.901Z,99.98
2022-10-11T06:56:06.546Z,99.85
2022-10-11T06:58:35.751Z,99.76
2022-10-11T07:01:08.214Z,99.54
2022-10-11T07:03:37.079Z,99.36
2022-10-11T07:06:09.121Z,99.06
2022-10-11T07:08:38.463Z,98.68
2022-10-11T07:11:10.928Z,98.23
2022-10-11T07:13:40.690Z,97.67
2022-10-11T07:16:12.494Z,97.49
2022-10-11T07:18:40.717Z,97.20
2022-10-11T07:21:13.759Z,97.08
2022-10-11T07:23:43.229Z,96.92
2022-10-11T07:26:12.475Z,96.31
2022-10-11T07:28:41.587Z,95.94
2022-10-11T07:31:16.540Z,95.83
2022-10-11T07:33:44.915Z,95.83
2022-10-11T07:36:13.876Z,95.71
2022-10-11T07:38:44.875Z,95.79
2022-10-11T07:41:13.945Z,95.66
2022-10-11T07:43:43.618Z,95.58
2022-10-11T07:46:12.011Z,95.48
2022-10-11T07:48:40.259Z,95.52
2022-10-11T07:51:15.961Z,95.17
2022-10-11T07:53:50.707Z,94.05
2022-10-11T07:56:26.014Z,93.28
2022-10-11T07:58:59.521Z,92.92
2022-10-11T08:01:28.426Z,92.44
2022-10-11T08:03:57.349Z,92.58
2022-10-11T08:06:31.614Z,92.28
2022-10-11T08:09:01.859Z,91.87
2022-10-11T08:11:34.819Z,91.80
2022-10-11T08:14:08.862Z,91.60
2022-10-11T08:16:40.906Z,91.68
2022-10-11T08:19:10.919Z,91.70
2022-10-11T08:21:39.254Z,91.19
2022-10-11T08:24:08.311Z,90.28
2022-10-11T08:26:36.598Z,90.00
2022-10-11T08:29:05.348Z,89.52
2022-10-11T08:31:34.613Z,89.00
2022-10-11T08:34:03.179Z,89.08
2022-10-11T08:36:31.590Z,89.00
2022-10-11T08:39:00.963Z,89.20
2022-10-11T08:41:54.473Z,89.29
2022-10-11T08:45:09.497Z,88.88
2022-10-11T08:47:42.778Z,88.12
2022-10-11T08:50:22.183Z,87.27
2022-10-11T08:53:06.973Z,85.92
2022-10-11T08:55:48.079Z,84.99
2022-10-11T08:58:21.153Z,84.55
2022-10-11T09:00:55.342Z,84.74
2022-10-11T09:03:38.783Z,83.77
2022-10-11T09:06:21.477Z,83.58
2022-10-11T09:09:26.345Z,83.10
2022-10-11T09:12:30.998Z,83.69
2022-10-11T09:15:33.368Z,82.53
2022-10-11T09:18:10.528Z,81.45
2022-10-11T09:21:02.431Z,81.41
2022-10-11T09:23:55.390Z,80.81
2022-10-11T09:26:43.754Z,81.42
2022-10-11T09:29:43.942Z,80.75
2022-10-11T09:32:21.321Z,79.70
2022-10-11T09:35:00.775Z,78.42
2022-10-11T09:38:00.821Z,78.59
2022-10-11T09:40:54.577Z,77.87
2022-10-11T09:43:22.853Z,77.33
2022-10-11T09:45:51.251Z,77.68
2022-10-11T09:48:24.843Z,77.17
2022-10-11T09:51:01.693Z,75.23
2022-10-11T09:53:54.157Z,74.86
2022-10-11T09:56:25.884Z,74.25
2022-10-11T09:59:26.161Z,73.83
2022-10-11T10:02:14.375Z,72.49
2022-10-11T10:05:10.492Z,72.48
2022-10-11T10:07:41.126Z,71.58
2022-10-11T10:10:40.666Z,71.04
2022-10-11T10:13:24.019Z,70.84
2022-10-11T10:15:56.130Z,71.20
2022-10-11T10:18:33.978Z,71.11
2022-10-11T10:21:03.927Z,71.02
2022-10-11T10:23:36.308Z,70.99
2022-10-11T10:26:20.149Z,71.16
2022-10-11T10:28:59.606Z,70.45
2022-10-11T10:32:01.842Z,69.76
2022-10-11T10:34:35.262Z,69.44
2022-10-11T10:37:25.075Z,68.97
2022-10-11T10:40:35.899Z,67.58
2022-10-11T10:43:04.223Z,67.73
2022-10-11T10:45:50.407Z,67.06
2022-10-11T10:49:19.170Z,66.72
2022-10-11T10:52:05.818Z,67.14
2022-10-11T10:55:11.605Z,66.78
2022-10-11T10:58:12.886Z,66.40
2022-10-11T11:00:50.174Z,65.35
2022-10-11T11:03:52.876Z,64.90
2022-10-11T11:06:34.214Z,64.75
2022-10-11T11:09:41.733Z,64.03
2022-10-11T11:12:41.110Z,63.47
2022-10-11T11:15:33.123Z,63.94
2022-10-11T11:18:36.588Z,64.20
2022-10-11T11:22:16.431Z,64.56
2022-10-11T11:24:50.645Z,62.97
2022-10-11T11:27:39.942Z,62.26
2022-10-11T11:31:08.622Z,61.88
2022-10-11T11:34:00.456Z,60.91
2022-10-11T11:36:44.649Z,60.25
2022-10-11T11:39:29.740Z,60.16
2022-10-11T11:42:11.755Z,59.65
2022-10-11T11:44:47.100Z,59.38
2022-10-11T11:47:34.109Z,59.24
2022-10-11T11:50:22.690Z,59.85
2022-10-11T11:53:08.037Z,59.47
2022-10-11T11:56:01.123Z,59.87
2022-10-11T11:59:06.482Z,60.23
2022-10-11T12:01:51.515Z,59.66
2022-10-11T12:04:33.271Z,59.62
2022-10-11T12:07:18.151Z,60.00
2022-10-11T12:09:55.252Z,59.50
2022-10-11T12:12:34.299Z,58.40
2022-10-11T12:15:08.492Z,58.67
2022-10-11T12:17:55.178Z,58.88
2022-10-11T12:20:31.601Z,59.40
2022-10-11T12:23:25.328Z,58.47
2022-10-11T12:26:27.728Z,57.89
2022-10-11T12:29:25.959Z,57.42
2022-10-11T12:32:02.308Z,57.19
2022-10-11T12:37:19.686Z,56.05
2022-10-11T12:39:59.779Z,56.15
2022-10-11T12:42:36.807Z,56.57
2022-10-11T12:45:10.993Z,56.72
2022-10-11T12:47:59.922Z,56.48
2022-10-11T12:51:14.730Z,56.74
2022-10-11T12:54:26.664Z,56.80
2022-10-11T12:57:16.196Z,56.40
2022-10-11T12:59:46.344Z,56.26
2022-10-11T13:02:39.811Z,56.16
2022-10-11T13:05:27.367Z,54.76
2022-10-11T13:07:59.233Z,54.46
2022-10-11T13:10:44.521Z,54.40
2022-10-11T13:13:32.499Z,53.93
2022-10-11T13:16:13.678Z,53.89
2022-10-11T13:18:46.348Z,54.00
2022-10-11T13:21:36.534Z,54.39
2022-10-11T13:24:19.321Z,54.51
2022-10-11T13:26:50.490Z,54.45
2022-10-11T13:29:38.039Z,54.29
2022-10-11T13:32:19.674Z,54.28
2022-10-11T13:34:52.865Z,54.51
2022-10-11T13:37:25.188Z,53.93
2022-10-11T13:39:55.735Z,53.44
2022-10-11T13:42:32.804Z,54.11
2022-10-11T13:45:01.611Z,53.87
2022-10-11T13:47:31.999Z,53.21
2022-10-11T13:50:15.555Z,53.14
2022-10-11T13:53:09.520Z,52.87
2022-10-11T13:56:12.930Z,52.73
2022-10-11T13:58:46.820Z,52.38
2022-10-11T14:01:27.742Z,52.29
2022-10-11T14:04:02.720Z,52.65
2022-10-11T14:07:02.394Z,52.84
2022-10-11T14:09:38.419Z,52.44
2022-10-11T14:12:44.421Z,52.38
2022-10-11T14:15:38.181Z,52.40
2022-10-11T14:18:35.202Z,52.88
2022-10-11T14:21:46.738Z,52.17
2022-10-11T14:24:17.791Z,52.19
2022-10-11T14:26:52.707Z,52.43
2022-10-11T14:29:41.955Z,52.09
2022-10-11T14:32:21.192Z,52.28
2022-10-11T14:34:49.883Z,51.38
2022-10-11T14:37:19.502Z,50.92
2022-10-11T14:39:48.167Z,50.58
2022-10-11T14:42:17.351Z,50.88
2022-10-11T14:44:45.689Z,51.47
2022-10-11T14:47:16.923Z,51.72
2022-10-11T14:49:45.445Z,51.37
2022-10-11T14:52:14.047Z,50.66
2022-10-11T14:54:42.391Z,50.46
2022-10-11T14:57:12.922Z,50.62
2022-10-11T14:59:42.057Z,51.00
2022-10-11T15:02:11.809Z,51.12
2022-10-11T15:04:40.212Z,51.01
2022-10-11T15:07:12.781Z,50.82
2022-10-11T15:09:42.251Z,50.90
2022-10-11T15:12:10.474Z,50.79
2022-10-11T15:14:38.654Z,50.58
2022-10-11T15:17:07.479Z,50.12
2022-10-11T15:19:36.585Z,49.88
2022-10-11T15:22:06.081Z,49.85
2022-10-11T15:24:34.413Z,49.57
2022-10-11T15:27:03.276Z,49.82
2022-10-11T15:29:31.490Z,49.95
2022-10-11T15:32:00.106Z,49.86
2022-10-11T15:34:28.294Z,49.81
2022-10-11T15:36:57.211Z,49.68
2022-10-11T15:39:33.983Z,49.90
2022-10-11T15:42:03.309Z,50.20
2022-10-11T15:44:31.683Z,50.63
2022-10-11T15:47:00.099Z,50.94
2022-10-11T15:49:30.060Z,51.13
2022-10-11T15:51:58.574Z,51.35
2022-10-11T15:54:26.821Z,51.64
2022-10-11T15:56:55.195Z,52.16
2022-10-11T15:59:23.698Z,52.80
2022-10-11T16:01:52.096Z,53.31
2022-10-11T16:04:20.369Z,53.44
2022-10-11T16:06:48.556Z,53.92
2022-10-11T16:09:16.763Z,54.16
2022-10-11T16:11:46.372Z,54.59
2022-10-11T16:14:14.936Z,54.76
2022-10-11T16:16:43.232Z,55.10
2022-10-11T16:19:11.949Z,55.56
2022-10-11T16:21:40.592Z,56.00
2022-10-11T16:24:09.008Z,56.26
2022-10-11T16:26:37.281Z,56.49
2022-10-11T16:29:05.498Z,56.75
2022-10-11T16:31:33.823Z,57.01
2022-10-11T16:34:02.208Z,57.34
2022-10-11T16:36:36.540Z,57.62
2022-10-11T16:39:11.922Z,58.03
2022-10-11T16:41:41.006Z,58.51
2022-10-11T16:44:15.165Z,58.83
2022-10-11T16:46:48.235Z,59.32
2022-10-11T16:49:19.718Z,59.58
2022-10-11T16:51:49.057Z,59.99
2022-10-11T16:54:20.436Z,60.30
2022-10-11T16:56:50.234Z,60.54
2022-10-11T16:59:19.118Z,60.86
2022-10-11T17:01:47.836Z,61.10
2022-10-11T17:04:16.186Z,61.56
2022-10-11T17:06:44.936Z,61.83
2022-10-11T17:09:13.983Z,62.14
2022-10-11T17:11:43.331Z,62.51
2022-10-11T17:14:13.450Z,62.91
2022-10-11T17:16:41.751Z,63.20
2022-10-11T17:19:15.396Z,63.37
2022-10-11T17:21:43.615Z,63.59
2022-10-11T17:24:11.837Z,63.99
2022-10-11T17:26:40.386Z,64.09
2022-10-11T17:29:14.888Z,64.62
2022-10-11T17:31:48.852Z,64.99
2022-10-11T17:34:18.136Z,65.40
2022-10-11T17:36:46.776Z,65.63
2022-10-11T17:39:19.230Z,65.99
2022-10-11T17:41:48.124Z,66.32
2022-10-11T17:44:18.025Z,66.79
2022-10-11T17:46:50.580Z,67.01
2022-10-11T17:49:18.850Z,67.15
2022-10-11T17:51:47.123Z,67.57
2022-10-11T17:54:15.507Z,67.77
2022-10-11T17:56:43.816Z,67.95
2022-10-11T17:59:16.863Z,68.19
2022-10-11T18:01:45.583Z,68.39
2022-10-11T18:04:16.865Z,68.73
2022-10-11T18:06:46.975Z,68.89
2022-10-11T18:09:18.322Z,69.18
2022-10-11T18:11:47.229Z,69.47
2022-10-11T18:14:15.775Z,69.74
2022-10-11T18:16:44.142Z,70.01
2022-10-11T18:19:13.477Z,70.34
2022-10-11T18:21:41.909Z,70.61
2022-10-11T18:24:16.628Z,70.79
2022-10-11T18:26:46.153Z,71.08
2022-10-11T18:29:14.623Z,71.42
2022-10-11T18:31:42.977Z,71.89
2022-10-11T18:34:13.043Z,72.16
2022-10-11T18:36:42.230Z,72.29
2022-10-11T18:39:14.463Z,72.47
2022-10-11T18:41:44.594Z,72.95
2022-10-11T18:44:16.017Z,73.00
2022-10-11T18:46:45.983Z,73.17
2022-10-11T18:49:14.802Z,73.15
2022-10-11T18:51:45.006Z,73.61
2022-10-11T18:54:18.320Z,73.85
2022-10-11T18:56:49.545Z,73.84
2022-10-11T18:59:18.168Z,73.94
2022-10-11T19:01:46.743Z,74.13
2022-10-11T19:04:18.823Z,74.40
2022-10-11T19:06:48.916Z,74.59
2022-10-11T19:09:24.325Z,74.83
2022-10-11T19:11:54.525Z,75.11
2022-10-11T19:14:26.943Z,75.30
2022-10-11T19:16:56.803Z,75.39
2022-10-11T19:19:29.084Z,75.54
2022-10-11T19:21:57.491Z,75.70
2022-10-11T19:24:28.923Z,75.82
2022-10-11T19:27:02.606Z,76.04
2022-10-11T19:29:32.441Z,76.44
2022-10-11T19:32:03.571Z,76.63
2022-10-11T19:34:32.821Z,76.83
2022-10-11T19:37:03.171Z,76.91
2022-10-11T19:39:32.144Z,77.19
2022-10-11T19:42:00.904Z,77.55
2022-10-11T19:44:29.882Z,77.50
2022-10-11T19:47:02.788Z,77.77
2022-10-11T19:49:33.409Z,78.05
2022-10-11T19:52:01.943Z,78.22
2022-10-11T19:54:30.453Z,78.43
2022-10-11T19:56:58.707Z,78.51
2022-10-11T19:59:28.098Z,78.49
2022-10-11T20:01:56.467Z,78.53
2022-10-11T20:04:52.037Z,78.66
2022-10-11T20:07:12.945Z,78.74
2022-10-11T20:09:41.316Z,78.68
2022-10-11T20:12:09.644Z,78.69
2022-10-11T20:14:37.959Z,78.69
2022-10-11T20:17:06.258Z,78.76
2022-10-11T20:19:34.609Z,79.01
2022-10-11T20:22:02.916Z,79.07
2022-10-11T20:24:34.297Z,79.24
2022-10-11T20:27:05.368Z,79.26
2022-10-11T20:29:34.102Z,79.42
2022-10-11T20:32:02.444Z,79.66
2022-10-11T20:34:31.200Z,79.83
2022-10-11T20:36:59.558Z,79.78
2022-10-11T20:39:27.794Z,79.87
2022-10-11T20:41:56.027Z,80.02
2022-10-11T20:44:24.361Z,79.98
2022-10-11T20:46:52.637Z,80.12
2022-10-11T20:49:22.442Z,80.19
2022-10-11T20:51:50.810Z,80.19
2022-10-11T20:54:19.123Z,80.12
2022-10-11T20:56:47.565Z,80.23
2022-10-11T20:59:15.823Z,80.09
2022-10-11T21:01:44.123Z,80.23
2022-10-11T21:04:19.008Z,80.23
2022-10-11T21:06:50.324Z,80.33
2022-10-11T21:09:19.131Z,80.43
2022-10-11T21:11:47.405Z,80.68
2022-10-11T21:14:15.879Z,81.02
2022-10-11T21:16:44.204Z,80.92
2022-10-11T21:19:15.281Z,80.95
2022-10-11T21:21:46.430Z,81.34
2022-10-11T21:24:16.710Z,81.77
2022-10-11T21:26:44.955Z,82.02
2022-10-11T21:29:13.482Z,82.13
2022-10-11T21:31:41.824Z,82.11
2022-10-11T21:34:10.107Z,82.02
2022-10-11T21:36:38.465Z,81.84
2022-10-11T21:39:06.947Z,81.83
2022-10-11T21:41:35.401Z,81.71
2022-10-11T21:44:04.461Z,81.81
2022-10-11T21:47:05.602Z,81.67
2022-10-11T21:49:24.988Z,81.74
2022-10-11T21:51:54.031Z,81.83
2022-10-11T21:54:22.381Z,81.88
2022-10-11T21:56:50.599Z,81.89
2022-10-11T21:59:18.872Z,81.87
2022-10-11T22:01:47.116Z,81.96
2022-10-11T22:04:16.510Z,81.98
2022-10-11T22:06:44.768Z,82.07
2022-10-11T22:09:13.138Z,82.33
2022-10-11T22:11:41.536Z,82.97
2022-10-11T22:14:09.760Z,83.35
2022-10-11T22:16:37.976Z,83.59
2022-10-11T22:19:06.289Z,83.75
2022-10-11T22:21:34.523Z,83.45
2022-10-11T22:24:02.994Z,83.26
2022-10-11T22:26:34.365Z,83.17
2022-10-11T22:29:02.628Z,83.20
2022-10-11T22:31:31.350Z,83.28
2022-10-11T22:34:00.906Z,83.20
2022-10-11T22:36:30.685Z,83.14
2022-10-11T22:38:59.206Z,83.26
2022-10-11T22:41:27.566Z,83.09
2022-10-11T22:43:55.785Z,83.28
2022-10-11T22:46:24.090Z,83.37
2022-10-11T22:48:52.297Z,83.45
2022-10-11T22:51:20.498Z,83.43
2022-10-11T22:53:48.824Z,83.50
2022-10-11T22:56:17.204Z,83.62
2022-10-11T22:58:45.504Z,83.86
2022-10-11T23:01:16.313Z,83.79
2022-10-11T23:03:50.417Z,83.91
2022-10-11T23:06:18.973Z,83.85
2022-10-11T23:08:47.286Z,83.77
2022-10-11T23:11:15.616Z,83.93
2022-10-11T23:13:43.891Z,83.85
2022-10-11T23:16:13.347Z,83.93
2022-10-11T23:18:42.669Z,83.95
2022-10-11T23:21:11.265Z,84.18
2022-10-11T23:23:39.906Z,84.03
2022-10-11T23:26:13.343Z,84.00
2022-10-11T23:28:43.211Z,84.01
2022-10-11T23:31:16.723Z,84.13
2022-10-11T23:33:46.605Z,84.30
2022-10-11T23:36:20.490Z,84.42
2022-10-11T23:38:57.850Z,84.43
2022-10-11T23:41:29.499Z,84.32
2022-10-11T23:43:58.664Z,84.43
2022-10-11T23:46:27.100Z,84.52
2022-10-11T23:48:55.572Z,84.65
2022-10-11T23:51:23.994Z,84.50
2022-10-11T23:53:52.349Z,84.59
2022-10-11T23:56:20.678Z,84.73
2022-10-11T23:58:48.968Z,85.24
